sensor_id;sensor_type;location;lat;lon;timestamp;P1;durP1;ratioP1;P2;durP2;ratioP2
43150;SDS011;28755;51.478;5.702;2023-02-01T00:01:30;19.55;;;6.60;;
43150;SDS011;28755;51.478;5.702;2023-02-01T00:03:56;28.77;;;6.75;;
43150;SDS011;28755;51.478;5.702;2023-02-01T00:06:21;24.30;;;6.40;;
43150;SDS011;28755;51.478;5.702;2023-02-01T00:08:47;26.15;;;6.28;;
43150;SDS011;28755;51.478;5.702;2023-02-01T00:11:13;23.70;;;5.82;;
43150;SDS011;28755;51.478;5.702;2023-02-01T00:13:39;18.92;;;5.78;;
43150;SDS011;28755;51.478;5.702;2023-02-01T00:16:08;20.63;;;5.10;;
43150;SDS011;28755;51.478;5.702;2023-02-01T00:18:35;26.38;;;6.18;;
43150;SDS011;28755;51.478;5.702;2023-02-01T00:21:01;28.63;;;5.65;;
43150;SDS011;28755;51.478;5.702;2023-02-01T00:23:27;27.50;;;5.28;;
43150;SDS011;28755;51.478;5.702;2023-02-01T00:25:52;18.33;;;5.05;;
43150;SDS011;28755;51.478;5.702;2023-02-01T00:28:18;25.95;;;5.88;;
43150;SDS011;28755;51.478;5.702;2023-02-01T00:30:44;21.42;;;4.97;;
43150;SDS011;28755;51.478;5.702;2023-02-01T00:33:09;19.65;;;4.68;;
43150;SDS011;28755;51.478;5.702;2023-02-01T00:35:35;17.92;;;4.28;;
43150;SDS011;28755;51.478;5.702;2023-02-01T00:38:01;15.25;;;4.13;;
43150;SDS011;28755;51.478;5.702;2023-02-01T00:40:26;22.83;;;4.20;;
43150;SDS011;28755;51.478;5.702;2023-02-01T00:42:52;24.67;;;5.30;;
43150;SDS011;28755;51.478;5.702;2023-02-01T00:45:18;23.45;;;4.00;;
43150;SDS011;28755;51.478;5.702;2023-02-01T00:47:44;20.20;;;3.88;;
43150;SDS011;28755;51.478;5.702;2023-02-01T00:50:10;19.77;;;4.93;;
43150;SDS011;28755;51.478;5.702;2023-02-01T00:52:35;18.80;;;3.50;;
43150;SDS011;28755;51.478;5.702;2023-02-01T00:55:01;18.83;;;3.58;;
43150;SDS011;28755;51.478;5.702;2023-02-01T00:57:27;17.27;;;4.47;;
43150;SDS011;28755;51.478;5.702;2023-02-01T00:59:52;18.55;;;4.13;;
43150;SDS011;28755;51.478;5.702;2023-02-01T01:02:18;21.23;;;4.07;;
43150;SDS011;28755;51.478;5.702;2023-02-01T01:04:43;17.42;;;3.95;;
43150;SDS011;28755;51.478;5.702;2023-02-01T01:07:09;25.30;;;4.68;;
43150;SDS011;28755;51.478;5.702;2023-02-01T01:09:35;19.13;;;3.95;;
43150;SDS011;28755;51.478;5.702;2023-02-01T01:12:00;23.90;;;3.75;;
43150;SDS011;28755;51.478;5.702;2023-02-01T01:14:28;29.90;;;4.05;;
43150;SDS011;28755;51.478;5.702;2023-02-01T01:16:54;23.67;;;3.75;;
43150;SDS011;28755;51.478;5.702;2023-02-01T01:19:19;25.38;;;4.25;;
43150;SDS011;28755;51.478;5.702;2023-02-01T01:21:45;25.60;;;4.00;;
43150;SDS011;28755;51.478;5.702;2023-02-01T01:24:10;20.38;;;3.88;;
43150;SDS011;28755;51.478;5.702;2023-02-01T01:26:36;23.17;;;4.40;;
43150;SDS011;28755;51.478;5.702;2023-02-01T01:29:02;16.90;;;3.22;;
43150;SDS011;28755;51.478;5.702;2023-02-01T01:31:27;18.60;;;3.75;;
43150;SDS011;28755;51.478;5.702;2023-02-01T01:33:55;23.70;;;4.47;;
43150;SDS011;28755;51.478;5.702;2023-02-01T01:36:22;21.45;;;3.75;;
43150;SDS011;28755;51.478;5.702;2023-02-01T01:38:48;21.80;;;3.72;;
43150;SDS011;28755;51.478;5.702;2023-02-01T01:41:19;23.55;;;4.35;;
43150;SDS011;28755;51.478;5.702;2023-02-01T01:43:56;25.42;;;4.30;;
43150;SDS011;28755;51.478;5.702;2023-02-01T01:46:31;26.17;;;4.30;;
43150;SDS011;28755;51.478;5.702;2023-02-01T01:51:35;23.35;;;3.72;;
43150;SDS011;28755;51.478;5.702;2023-02-01T01:54:07;17.02;;;4.00;;
43150;SDS011;28755;51.478;5.702;2023-02-01T01:56:53;21.63;;;4.25;;
43150;SDS011;28755;51.478;5.702;2023-02-01T01:59:22;28.98;;;4.45;;
43150;SDS011;28755;51.478;5.702;2023-02-01T02:01:49;20.35;;;4.00;;
43150;SDS011;28755;51.478;5.702;2023-02-01T02:04:15;19.27;;;4.15;;
43150;SDS011;28755;51.478;5.702;2023-02-01T02:06:57;32.22;;;4.68;;
43150;SDS011;28755;51.478;5.702;2023-02-01T02:09:29;27.27;;;4.60;;
43150;SDS011;28755;51.478;5.702;2023-02-01T02:11:54;28.42;;;4.90;;
43150;SDS011;28755;51.478;5.702;2023-02-01T02:14:20;22.02;;;4.20;;
43150;SDS011;28755;51.478;5.702;2023-02-01T02:36:39;28.17;;;4.70;;
43150;SDS011;28755;51.478;5.702;2023-02-01T02:42:12;21.95;;;4.90;;
43150;SDS011;28755;51.478;5.702;2023-02-01T02:45:06;28.10;;;4.88;;
43150;SDS011;28755;51.478;5.702;2023-02-01T02:50:37;20.95;;;5.70;;
43150;SDS011;28755;51.478;5.702;2023-02-01T02:53:28;26.88;;;5.10;;
43150;SDS011;28755;51.478;5.702;2023-02-01T02:56:21;23.55;;;5.07;;
43150;SDS011;28755;51.478;5.702;2023-02-01T02:59:07;24.27;;;4.97;;
43150;SDS011;28755;51.478;5.702;2023-02-01T03:01:53;27.13;;;4.80;;
43150;SDS011;28755;51.478;5.702;2023-02-01T03:04:38;27.75;;;5.22;;
43150;SDS011;28755;51.478;5.702;2023-02-01T03:07:11;16.58;;;4.93;;
43150;SDS011;28755;51.478;5.702;2023-02-01T03:09:59;32.90;;;4.95;;
43150;SDS011;28755;51.478;5.702;2023-02-01T03:12:30;27.25;;;4.72;;
43150;SDS011;28755;51.478;5.702;2023-02-01T03:15:21;27.08;;;4.63;;
43150;SDS011;28755;51.478;5.702;2023-02-01T03:18:08;28.70;;;5.70;;
43150;SDS011;28755;51.478;5.702;2023-02-01T03:20:42;23.98;;;4.65;;
43150;SDS011;28755;51.478;5.702;2023-02-01T03:23:11;29.10;;;4.70;;
43150;SDS011;28755;51.478;5.702;2023-02-01T03:25:42;25.73;;;4.50;;
43150;SDS011;28755;51.478;5.702;2023-02-01T03:28:08;38.78;;;5.13;;
43150;SDS011;28755;51.478;5.702;2023-02-01T03:30:37;24.13;;;4.10;;
43150;SDS011;28755;51.478;5.702;2023-02-01T03:33:08;34.22;;;5.40;;
43150;SDS011;28755;51.478;5.702;2023-02-01T03:41:24;23.00;;;4.20;;
43150;SDS011;28755;51.478;5.702;2023-02-01T03:43:59;23.75;;;4.35;;
43150;SDS011;28755;51.478;5.702;2023-02-01T03:46:32;34.33;;;5.38;;
43150;SDS011;28755;51.478;5.702;2023-02-01T03:49:02;29.65;;;5.05;;
43150;SDS011;28755;51.478;5.702;2023-02-01T03:51:31;30.92;;;4.75;;
43150;SDS011;28755;51.478;5.702;2023-02-01T03:53:57;28.98;;;4.93;;
43150;SDS011;28755;51.478;5.702;2023-02-01T03:56:27;36.22;;;5.60;;
43150;SDS011;28755;51.478;5.702;2023-02-01T03:58:54;19.27;;;3.85;;
43150;SDS011;28755;51.478;5.702;2023-02-01T04:01:24;32.85;;;4.82;;
43150;SDS011;28755;51.478;5.702;2023-02-01T04:03:51;24.15;;;4.63;;
43150;SDS011;28755;51.478;5.702;2023-02-01T04:06:16;26.08;;;4.20;;
43150;SDS011;28755;51.478;5.702;2023-02-01T04:08:42;29.52;;;5.05;;
43150;SDS011;28755;51.478;5.702;2023-02-01T04:11:08;27.63;;;4.50;;
43150;SDS011;28755;51.478;5.702;2023-02-01T04:13:33;24.90;;;4.28;;
43150;SDS011;28755;51.478;5.702;2023-02-01T04:15:59;27.20;;;5.20;;
43150;SDS011;28755;51.478;5.702;2023-02-01T04:18:24;22.38;;;4.50;;
43150;SDS011;28755;51.478;5.702;2023-02-01T04:20:50;32.47;;;4.18;;
43150;SDS011;28755;51.478;5.702;2023-02-01T04:23:15;31.48;;;5.60;;
43150;SDS011;28755;51.478;5.702;2023-02-01T04:25:41;23.02;;;4.28;;
43150;SDS011;28755;51.478;5.702;2023-02-01T04:28:06;30.70;;;4.50;;
43150;SDS011;28755;51.478;5.702;2023-02-01T04:30:32;27.77;;;4.55;;
43150;SDS011;28755;51.478;5.702;2023-02-01T04:32:58;32.50;;;4.57;;
43150;SDS011;28755;51.478;5.702;2023-02-01T04:35:23;25.98;;;4.45;;
43150;SDS011;28755;51.478;5.702;2023-02-01T04:37:49;31.23;;;5.10;;
43150;SDS011;28755;51.478;5.702;2023-02-01T04:40:14;22.08;;;4.90;;
43150;SDS011;28755;51.478;5.702;2023-02-01T04:42:40;31.77;;;4.28;;
43150;SDS011;28755;51.478;5.702;2023-02-01T04:45:06;23.50;;;5.07;;
43150;SDS011;28755;51.478;5.702;2023-02-01T04:47:31;29.90;;;4.47;;
43150;SDS011;28755;51.478;5.702;2023-02-01T04:49:57;33.92;;;4.60;;
43150;SDS011;28755;51.478;5.702;2023-02-01T04:52:23;33.58;;;4.53;;
43150;SDS011;28755;51.478;5.702;2023-02-01T04:54:48;26.63;;;4.05;;
43150;SDS011;28755;51.478;5.702;2023-02-01T04:57:14;29.58;;;4.55;;
43150;SDS011;28755;51.478;5.702;2023-02-01T04:59:40;29.05;;;4.82;;
43150;SDS011;28755;51.478;5.702;2023-02-01T05:02:05;36.67;;;4.97;;
43150;SDS011;28755;51.478;5.702;2023-02-01T05:04:31;22.30;;;4.47;;
43150;SDS011;28755;51.478;5.702;2023-02-01T05:06:56;31.15;;;4.50;;
43150;SDS011;28755;51.478;5.702;2023-02-01T05:09:22;32.47;;;4.90;;
43150;SDS011;28755;51.478;5.702;2023-02-01T05:11:47;32.85;;;5.15;;
43150;SDS011;28755;51.478;5.702;2023-02-01T05:14:32;32.25;;;4.47;;
43150;SDS011;28755;51.478;5.702;2023-02-01T05:16:57;25.50;;;4.35;;
43150;SDS011;28755;51.478;5.702;2023-02-01T05:19:23;28.27;;;4.38;;
43150;SDS011;28755;51.478;5.702;2023-02-01T05:21:48;26.48;;;4.78;;
43150;SDS011;28755;51.478;5.702;2023-02-01T05:24:14;29.17;;;4.70;;
43150;SDS011;28755;51.478;5.702;2023-02-01T05:29:10;34.05;;;5.07;;
43150;SDS011;28755;51.478;5.702;2023-02-01T05:31:37;37.08;;;4.70;;
43150;SDS011;28755;51.478;5.702;2023-02-01T05:34:03;28.58;;;5.20;;
43150;SDS011;28755;51.478;5.702;2023-02-01T05:36:29;22.10;;;4.22;;
43150;SDS011;28755;51.478;5.702;2023-02-01T05:38:55;28.85;;;4.60;;
43150;SDS011;28755;51.478;5.702;2023-02-01T05:41:21;31.20;;;4.88;;
43150;SDS011;28755;51.478;5.702;2023-02-01T05:43:46;24.65;;;4.38;;
43150;SDS011;28755;51.478;5.702;2023-02-01T05:46:12;26.88;;;4.75;;
43150;SDS011;28755;51.478;5.702;2023-02-01T05:48:38;26.15;;;5.18;;
43150;SDS011;28755;51.478;5.702;2023-02-01T05:51:04;30.08;;;5.20;;
43150;SDS011;28755;51.478;5.702;2023-02-01T05:53:30;31.60;;;5.30;;
43150;SDS011;28755;51.478;5.702;2023-02-01T05:59:00;29.95;;;4.40;;
43150;SDS011;28755;51.478;5.702;2023-02-01T06:01:31;25.40;;;4.68;;
43150;SDS011;28755;51.478;5.702;2023-02-01T06:03:57;28.27;;;6.07;;
43150;SDS011;28755;51.478;5.702;2023-02-01T06:06:22;22.23;;;3.92;;
43150;SDS011;28755;51.478;5.702;2023-02-01T06:08:48;36.38;;;5.68;;
43150;SDS011;28755;51.478;5.702;2023-02-01T06:11:14;33.85;;;5.60;;
43150;SDS011;28755;51.478;5.702;2023-02-01T06:13:39;27.05;;;4.63;;
43150;SDS011;28755;51.478;5.702;2023-02-01T06:16:05;32.05;;;4.90;;
43150;SDS011;28755;51.478;5.702;2023-02-01T06:18:32;32.22;;;5.18;;
43150;SDS011;28755;51.478;5.702;2023-02-01T06:20:59;31.58;;;4.93;;
43150;SDS011;28755;51.478;5.702;2023-02-01T06:23:25;33.70;;;4.88;;
43150;SDS011;28755;51.478;5.702;2023-02-01T06:26:13;23.23;;;4.90;;
43150;SDS011;28755;51.478;5.702;2023-02-01T06:28:38;38.42;;;6.38;;
43150;SDS011;28755;51.478;5.702;2023-02-01T06:31:04;27.38;;;4.47;;
43150;SDS011;28755;51.478;5.702;2023-02-01T06:33:32;21.33;;;4.97;;
43150;SDS011;28755;51.478;5.702;2023-02-01T06:36:02;33.47;;;6.03;;
43150;SDS011;28755;51.478;5.702;2023-02-01T06:38:29;27.15;;;5.28;;
43150;SDS011;28755;51.478;5.702;2023-02-01T06:40:56;29.10;;;5.13;;
43150;SDS011;28755;51.478;5.702;2023-02-01T06:43:23;37.00;;;5.15;;
43150;SDS011;28755;51.478;5.702;2023-02-01T06:45:49;27.05;;;6.30;;
43150;SDS011;28755;51.478;5.702;2023-02-01T06:48:16;25.45;;;4.60;;
43150;SDS011;28755;51.478;5.702;2023-02-01T06:50:41;30.38;;;4.95;;
43150;SDS011;28755;51.478;5.702;2023-02-01T06:53:07;43.20;;;5.95;;
43150;SDS011;28755;51.478;5.702;2023-02-01T06:55:32;27.95;;;5.43;;
43150;SDS011;28755;51.478;5.702;2023-02-01T06:57:58;39.83;;;5.45;;
43150;SDS011;28755;51.478;5.702;2023-02-01T07:00:24;36.83;;;6.05;;
43150;SDS011;28755;51.478;5.702;2023-02-01T07:02:50;28.13;;;6.03;;
43150;SDS011;28755;51.478;5.702;2023-02-01T07:05:16;41.53;;;6.07;;
43150;SDS011;28755;51.478;5.702;2023-02-01T07:07:41;31.23;;;5.90;;
43150;SDS011;28755;51.478;5.702;2023-02-01T07:10:07;31.98;;;5.15;;
43150;SDS011;28755;51.478;5.702;2023-02-01T07:12:34;29.95;;;5.47;;
43150;SDS011;28755;51.478;5.702;2023-02-01T07:14:59;33.03;;;7.65;;
43150;SDS011;28755;51.478;5.702;2023-02-01T07:17:26;34.63;;;5.63;;
43150;SDS011;28755;51.478;5.702;2023-02-01T07:19:53;35.58;;;6.28;;
43150;SDS011;28755;51.478;5.702;2023-02-01T07:22:19;33.22;;;5.72;;
43150;SDS011;28755;51.478;5.702;2023-02-01T07:24:45;35.33;;;5.78;;
43150;SDS011;28755;51.478;5.702;2023-02-01T07:27:11;31.67;;;5.10;;
43150;SDS011;28755;51.478;5.702;2023-02-01T07:29:36;34.53;;;6.85;;
43150;SDS011;28755;51.478;5.702;2023-02-01T07:32:02;34.55;;;5.75;;
43150;SDS011;28755;51.478;5.702;2023-02-01T07:34:28;31.23;;;5.47;;
43150;SDS011;28755;51.478;5.702;2023-02-01T07:36:55;36.50;;;5.60;;
43150;SDS011;28755;51.478;5.702;2023-02-01T07:39:20;30.55;;;5.47;;
43150;SDS011;28755;51.478;5.702;2023-02-01T07:41:46;25.83;;;5.10;;
43150;SDS011;28755;51.478;5.702;2023-02-01T07:44:12;33.03;;;5.72;;
43150;SDS011;28755;51.478;5.702;2023-02-01T07:46:37;32.28;;;5.38;;
43150;SDS011;28755;51.478;5.702;2023-02-01T07:49:04;24.35;;;5.57;;
43150;SDS011;28755;51.478;5.702;2023-02-01T07:51:29;26.67;;;4.88;;
43150;SDS011;28755;51.478;5.702;2023-02-01T07:53:55;38.33;;;5.55;;
43150;SDS011;28755;51.478;5.702;2023-02-01T07:56:21;28.58;;;5.32;;
43150;SDS011;28755;51.478;5.702;2023-02-01T07:58:50;37.30;;;5.88;;
43150;SDS011;28755;51.478;5.702;2023-02-01T08:01:18;40.58;;;6.38;;
43150;SDS011;28755;51.478;5.702;2023-02-01T08:03:48;32.50;;;5.45;;
43150;SDS011;28755;51.478;5.702;2023-02-01T08:06:24;38.50;;;5.15;;
43150;SDS011;28755;51.478;5.702;2023-02-01T08:08:51;24.88;;;4.57;;
43150;SDS011;28755;51.478;5.702;2023-02-01T08:11:18;40.42;;;6.05;;
43150;SDS011;28755;51.478;5.702;2023-02-01T08:13:44;29.35;;;5.38;;
43150;SDS011;28755;51.478;5.702;2023-02-01T08:16:11;30.33;;;5.95;;
43150;SDS011;28755;51.478;5.702;2023-02-01T08:18:37;25.73;;;5.28;;
43150;SDS011;28755;51.478;5.702;2023-02-01T08:21:14;33.33;;;5.53;;
43150;SDS011;28755;51.478;5.702;2023-02-01T08:23:44;29.35;;;4.90;;
43150;SDS011;28755;51.478;5.702;2023-02-01T08:28:41;36.53;;;5.38;;
43150;SDS011;28755;51.478;5.702;2023-02-01T08:31:11;32.13;;;5.03;;
43150;SDS011;28755;51.478;5.702;2023-02-01T08:33:39;25.73;;;5.15;;
43150;SDS011;28755;51.478;5.702;2023-02-01T08:36:06;24.05;;;4.82;;
43150;SDS011;28755;51.478;5.702;2023-02-01T08:38:37;25.88;;;4.57;;
43150;SDS011;28755;51.478;5.702;2023-02-01T08:41:04;28.92;;;5.10;;
43150;SDS011;28755;51.478;5.702;2023-02-01T08:43:34;34.10;;;5.57;;
43150;SDS011;28755;51.478;5.702;2023-02-01T08:46:00;33.33;;;5.70;;
43150;SDS011;28755;51.478;5.702;2023-02-01T08:48:26;37.03;;;5.80;;
43150;SDS011;28755;51.478;5.702;2023-02-01T08:50:52;25.90;;;5.10;;
43150;SDS011;28755;51.478;5.702;2023-02-01T08:53:17;24.50;;;4.80;;
43150;SDS011;28755;51.478;5.702;2023-02-01T08:55:45;26.88;;;5.03;;
43150;SDS011;28755;51.478;5.702;2023-02-01T08:58:11;29.33;;;4.80;;
43150;SDS011;28755;51.478;5.702;2023-02-01T09:00:38;28.27;;;5.53;;
43150;SDS011;28755;51.478;5.702;2023-02-01T09:03:05;29.08;;;4.55;;
43150;SDS011;28755;51.478;5.702;2023-02-01T09:05:30;35.33;;;5.07;;
43150;SDS011;28755;51.478;5.702;2023-02-01T09:07:56;28.10;;;5.32;;
43150;SDS011;28755;51.478;5.702;2023-02-01T09:10:21;32.85;;;5.03;;
43150;SDS011;28755;51.478;5.702;2023-02-01T09:12:47;25.67;;;4.75;;
43150;SDS011;28755;51.478;5.702;2023-02-01T09:15:13;23.58;;;4.05;;
43150;SDS011;28755;51.478;5.702;2023-02-01T09:17:38;30.27;;;4.90;;
43150;SDS011;28755;51.478;5.702;2023-02-01T09:20:06;27.90;;;4.75;;
43150;SDS011;28755;51.478;5.702;2023-02-01T09:22:33;34.38;;;5.32;;
43150;SDS011;28755;51.478;5.702;2023-02-01T09:24:59;30.08;;;5.40;;
43150;SDS011;28755;51.478;5.702;2023-02-01T09:27:25;29.23;;;5.72;;
43150;SDS011;28755;51.478;5.702;2023-02-01T09:29:50;28.83;;;4.90;;
43150;SDS011;28755;51.478;5.702;2023-02-01T09:32:18;29.25;;;5.00;;
43150;SDS011;28755;51.478;5.702;2023-02-01T09:34:48;27.23;;;4.47;;
43150;SDS011;28755;51.478;5.702;2023-02-01T09:37:15;25.13;;;4.43;;
43150;SDS011;28755;51.478;5.702;2023-02-01T09:39:41;30.80;;;4.95;;
43150;SDS011;28755;51.478;5.702;2023-02-01T09:47:54;32.30;;;5.13;;
43150;SDS011;28755;51.478;5.702;2023-02-01T09:50:33;27.52;;;3.67;;
43150;SDS011;28755;51.478;5.702;2023-02-01T09:53:12;23.33;;;3.58;;
43150;SDS011;28755;51.478;5.702;2023-02-01T09:55:47;26.35;;;4.15;;
43150;SDS011;28755;51.478;5.702;2023-02-01T10:00:53;23.52;;;4.80;;
43150;SDS011;28755;51.478;5.702;2023-02-01T10:03:24;17.30;;;3.00;;
43150;SDS011;28755;51.478;5.702;2023-02-01T10:11:21;29.80;;;4.72;;
43150;SDS011;28755;51.478;5.702;2023-02-01T10:17:24;24.45;;;4.10;;
43150;SDS011;28755;51.478;5.702;2023-02-01T10:25:37;24.00;;;4.20;;
43150;SDS011;28755;51.478;5.702;2023-02-01T10:28:18;21.77;;;3.72;;
43150;SDS011;28755;51.478;5.702;2023-02-01T10:30:47;25.15;;;4.03;;
43150;SDS011;28755;51.478;5.702;2023-02-01T10:36:13;19.48;;;3.97;;
43150;SDS011;28755;51.478;5.702;2023-02-01T10:38:44;23.23;;;4.00;;
43150;SDS011;28755;51.478;5.702;2023-02-01T10:41:18;22.95;;;3.80;;
43150;SDS011;28755;51.478;5.702;2023-02-01T10:43:48;27.13;;;4.38;;
43150;SDS011;28755;51.478;5.702;2023-02-01T10:46:18;22.15;;;4.40;;
43150;SDS011;28755;51.478;5.702;2023-02-01T10:48:43;25.70;;;4.82;;
43150;SDS011;28755;51.478;5.702;2023-02-01T10:51:21;18.42;;;3.50;;
43150;SDS011;28755;51.478;5.702;2023-02-01T10:53:52;18.88;;;4.13;;
43150;SDS011;28755;51.478;5.702;2023-02-01T10:56:28;19.55;;;3.88;;
43150;SDS011;28755;51.478;5.702;2023-02-01T10:59:01;21.10;;;3.67;;
43150;SDS011;28755;51.478;5.702;2023-02-01T11:01:30;19.55;;;3.17;;
43150;SDS011;28755;51.478;5.702;2023-02-01T11:04:05;21.65;;;4.00;;
43150;SDS011;28755;51.478;5.702;2023-02-01T11:06:36;25.48;;;3.85;;
43150;SDS011;28755;51.478;5.702;2023-02-01T11:14:34;26.90;;;3.45;;
43150;SDS011;28755;51.478;5.702;2023-02-01T11:19:43;24.25;;;3.53;;
43150;SDS011;28755;51.478;5.702;2023-02-01T11:22:10;20.00;;;3.83;;
43150;SDS011;28755;51.478;5.702;2023-02-01T11:24:38;19.98;;;3.03;;
43150;SDS011;28755;51.478;5.702;2023-02-01T11:27:06;18.75;;;4.03;;
43150;SDS011;28755;51.478;5.702;2023-02-01T11:29:41;22.80;;;3.85;;
43150;SDS011;28755;51.478;5.702;2023-02-01T11:34:38;18.15;;;3.72;;
43150;SDS011;28755;51.478;5.702;2023-02-01T11:37:19;15.10;;;3.28;;
43150;SDS011;28755;51.478;5.702;2023-02-01T11:42:21;19.90;;;3.63;;
43150;SDS011;28755;51.478;5.702;2023-02-01T11:44:47;20.13;;;3.17;;
43150;SDS011;28755;51.478;5.702;2023-02-01T11:47:24;22.30;;;3.47;;
43150;SDS011;28755;51.478;5.702;2023-02-01T11:49:56;21.27;;;3.40;;
43150;SDS011;28755;51.478;5.702;2023-02-01T12:17:18;20.60;;;3.47;;
43150;SDS011;28755;51.478;5.702;2023-02-01T12:20:16;26.50;;;3.60;;
43150;SDS011;28755;51.478;5.702;2023-02-01T12:26:02;23.45;;;3.60;;
43150;SDS011;28755;51.478;5.702;2023-02-01T12:29:03;18.95;;;3.25;;
43150;SDS011;28755;51.478;5.702;2023-02-01T12:31:42;19.25;;;3.20;;
43150;SDS011;28755;51.478;5.702;2023-02-01T12:37:30;18.20;;;3.30;;
43150;SDS011;28755;51.478;5.702;2023-02-01T12:42:58;23.70;;;3.47;;
43150;SDS011;28755;51.478;5.702;2023-02-01T12:45:47;24.65;;;3.92;;
43150;SDS011;28755;51.478;5.702;2023-02-01T12:51:10;19.92;;;3.03;;
43150;SDS011;28755;51.478;5.702;2023-02-01T12:53:45;31.02;;;3.42;;
43150;SDS011;28755;51.478;5.702;2023-02-01T12:56:38;18.90;;;3.25;;
43150;SDS011;28755;51.478;5.702;2023-02-01T13:07:30;21.13;;;3.40;;
43150;SDS011;28755;51.478;5.702;2023-02-01T13:10:18;23.27;;;3.30;;
43150;SDS011;28755;51.478;5.702;2023-02-01T13:12:54;17.02;;;2.70;;
43150;SDS011;28755;51.478;5.702;2023-02-01T13:15:28;24.58;;;3.67;;
43150;SDS011;28755;51.478;5.702;2023-02-01T13:18:03;23.48;;;3.90;;
43150;SDS011;28755;51.478;5.702;2023-02-01T13:20:32;21.50;;;3.03;;
43150;SDS011;28755;51.478;5.702;2023-02-01T13:23:04;14.25;;;3.33;;
43150;SDS011;28755;51.478;5.702;2023-02-01T13:28:06;22.67;;;4.10;;
43150;SDS011;28755;51.478;5.702;2023-02-01T13:30:53;22.25;;;4.40;;
43150;SDS011;28755;51.478;5.702;2023-02-01T13:33:52;19.13;;;2.63;;
43150;SDS011;28755;51.478;5.702;2023-02-01T13:41:54;21.08;;;3.88;;
43150;SDS011;28755;51.478;5.702;2023-02-01T13:44:36;18.05;;;3.17;;
43150;SDS011;28755;51.478;5.702;2023-02-01T13:47:15;24.02;;;3.50;;
43150;SDS011;28755;51.478;5.702;2023-02-01T13:49:50;13.65;;;3.63;;
43150;SDS011;28755;51.478;5.702;2023-02-01T13:52:27;24.38;;;4.60;;
43150;SDS011;28755;51.478;5.702;2023-02-01T13:57:45;22.05;;;3.47;;
43150;SDS011;28755;51.478;5.702;2023-02-01T14:00:32;13.23;;;2.53;;
43150;SDS011;28755;51.478;5.702;2023-02-01T14:10:47;22.48;;;4.32;;
43150;SDS011;28755;51.478;5.702;2023-02-01T14:13:29;15.27;;;3.47;;
43150;SDS011;28755;51.478;5.702;2023-02-01T14:23:41;24.17;;;3.70;;
43150;SDS011;28755;51.478;5.702;2023-02-01T14:26:11;19.92;;;3.45;;
43150;SDS011;28755;51.478;5.702;2023-02-01T14:28:43;23.58;;;4.28;;
43150;SDS011;28755;51.478;5.702;2023-02-01T14:34:15;16.75;;;3.65;;
43150;SDS011;28755;51.478;5.702;2023-02-01T14:36:49;18.65;;;3.35;;
43150;SDS011;28755;51.478;5.702;2023-02-01T14:39:25;24.52;;;3.47;;
43150;SDS011;28755;51.478;5.702;2023-02-01T14:41:57;19.10;;;3.35;;
43150;SDS011;28755;51.478;5.702;2023-02-01T14:44:28;20.02;;;4.38;;
43150;SDS011;28755;51.478;5.702;2023-02-01T14:49:58;21.58;;;3.63;;
43150;SDS011;28755;51.478;5.702;2023-02-01T15:03:53;24.63;;;3.70;;
43150;SDS011;28755;51.478;5.702;2023-02-01T15:14:37;16.30;;;3.55;;
43150;SDS011;28755;51.478;5.702;2023-02-01T15:19:57;20.30;;;3.40;;
43150;SDS011;28755;51.478;5.702;2023-02-01T15:22:40;25.67;;;4.40;;
43150;SDS011;28755;51.478;5.702;2023-02-01T15:25:17;17.05;;;3.15;;
43150;SDS011;28755;51.478;5.702;2023-02-01T15:27:45;20.25;;;4.25;;
43150;SDS011;28755;51.478;5.702;2023-02-01T15:30:16;17.85;;;3.42;;
43150;SDS011;28755;51.478;5.702;2023-02-01T15:32:44;22.65;;;3.75;;
43150;SDS011;28755;51.478;5.702;2023-02-01T15:43:25;25.13;;;4.00;;
43150;SDS011;28755;51.478;5.702;2023-02-01T15:45:52;27.55;;;4.13;;
43150;SDS011;28755;51.478;5.702;2023-02-01T15:48:25;18.85;;;3.42;;
43150;SDS011;28755;51.478;5.702;2023-02-01T15:50:56;20.95;;;3.75;;
43150;SDS011;28755;51.478;5.702;2023-02-01T15:53:23;22.58;;;4.10;;
43150;SDS011;28755;51.478;5.702;2023-02-01T15:55:54;22.77;;;3.72;;
43150;SDS011;28755;51.478;5.702;2023-02-01T15:58:22;19.58;;;4.05;;
43150;SDS011;28755;51.478;5.702;2023-02-01T16:00:56;20.38;;;3.50;;
43150;SDS011;28755;51.478;5.702;2023-02-01T16:03:33;18.83;;;3.72;;
43150;SDS011;28755;51.478;5.702;2023-02-01T16:06:26;26.15;;;3.53;;
43150;SDS011;28755;51.478;5.702;2023-02-01T16:09:09;25.13;;;3.72;;
43150;SDS011;28755;51.478;5.702;2023-02-01T16:11:41;26.13;;;4.05;;
43150;SDS011;28755;51.478;5.702;2023-02-01T16:14:27;25.63;;;4.07;;
43150;SDS011;28755;51.478;5.702;2023-02-01T16:16:54;21.58;;;4.05;;
43150;SDS011;28755;51.478;5.702;2023-02-01T16:19:21;27.25;;;4.00;;
43150;SDS011;28755;51.478;5.702;2023-02-01T16:21:49;22.85;;;3.60;;
43150;SDS011;28755;51.478;5.702;2023-02-01T16:24:15;24.15;;;4.43;;
43150;SDS011;28755;51.478;5.702;2023-02-01T16:26:41;27.35;;;4.65;;
43150;SDS011;28755;51.478;5.702;2023-02-01T16:29:06;27.17;;;4.03;;
43150;SDS011;28755;51.478;5.702;2023-02-01T16:31:34;28.80;;;4.82;;
43150;SDS011;28755;51.478;5.702;2023-02-01T16:34:03;30.10;;;4.32;;
43150;SDS011;28755;51.478;5.702;2023-02-01T16:36:30;27.65;;;4.78;;
43150;SDS011;28755;51.478;5.702;2023-02-01T16:38:56;28.98;;;3.83;;
43150;SDS011;28755;51.478;5.702;2023-02-01T16:41:23;27.17;;;4.07;;
43150;SDS011;28755;51.478;5.702;2023-02-01T16:43:50;21.35;;;4.07;;
43150;SDS011;28755;51.478;5.702;2023-02-01T16:46:18;32.65;;;4.55;;
43150;SDS011;28755;51.478;5.702;2023-02-01T16:48:50;20.38;;;4.15;;
43150;SDS011;28755;51.478;5.702;2023-02-01T16:51:18;17.77;;;3.72;;
43150;SDS011;28755;51.478;5.702;2023-02-01T16:53:44;28.52;;;4.07;;
43150;SDS011;28755;51.478;5.702;2023-02-01T17:01:08;17.30;;;3.92;;
43150;SDS011;28755;51.478;5.702;2023-02-01T17:03:35;25.15;;;4.40;;
43150;SDS011;28755;51.478;5.702;2023-02-01T17:06:00;20.73;;;3.30;;
43150;SDS011;28755;51.478;5.702;2023-02-01T17:08:31;22.92;;;3.75;;
43150;SDS011;28755;51.478;5.702;2023-02-01T17:10:59;27.05;;;4.47;;
43150;SDS011;28755;51.478;5.702;2023-02-01T17:13:25;29.10;;;4.38;;
43150;SDS011;28755;51.478;5.702;2023-02-01T17:15:56;27.10;;;4.05;;
43150;SDS011;28755;51.478;5.702;2023-02-01T17:18:31;23.75;;;4.05;;
43150;SDS011;28755;51.478;5.702;2023-02-01T17:21:00;21.52;;;3.17;;
43150;SDS011;28755;51.478;5.702;2023-02-01T17:23:28;27.05;;;3.83;;
43150;SDS011;28755;51.478;5.702;2023-02-01T17:25:54;19.10;;;4.18;;
43150;SDS011;28755;51.478;5.702;2023-02-01T17:28:21;25.25;;;4.45;;
43150;SDS011;28755;51.478;5.702;2023-02-01T17:30:46;24.45;;;3.92;;
43150;SDS011;28755;51.478;5.702;2023-02-01T17:33:26;22.48;;;3.80;;
43150;SDS011;28755;51.478;5.702;2023-02-01T17:35:57;23.88;;;3.95;;
43150;SDS011;28755;51.478;5.702;2023-02-01T17:38:23;23.27;;;3.75;;
43150;SDS011;28755;51.478;5.702;2023-02-01T17:40:49;25.33;;;3.92;;
43150;SDS011;28755;51.478;5.702;2023-02-01T17:43:16;23.45;;;4.90;;
43150;SDS011;28755;51.478;5.702;2023-02-01T17:45:49;17.90;;;3.58;;
43150;SDS011;28755;51.478;5.702;2023-02-01T17:48:20;28.15;;;8.25;;
43150;SDS011;28755;51.478;5.702;2023-02-01T17:50:48;18.00;;;4.03;;
43150;SDS011;28755;51.478;5.702;2023-02-01T17:53:16;29.73;;;7.05;;
43150;SDS011;28755;51.478;5.702;2023-02-01T17:55:45;24.55;;;4.95;;
43150;SDS011;28755;51.478;5.702;2023-02-01T17:58:11;20.95;;;4.18;;
43150;SDS011;28755;51.478;5.702;2023-02-01T18:00:38;20.70;;;3.72;;
43150;SDS011;28755;51.478;5.702;2023-02-01T18:03:04;20.92;;;4.10;;